Aérodrome :
LOGIN :

S'inscrire | Disclaimer

   EN    FR    IT 

 










Légende :    VFR   VFR Marginal   IFR   IFR Intensif   IFR Très Intensif
Visi : 
Plafond : 
>= 8 km
>= 3000ft
5 à 8 km
1000 à 3000 ft
1500m à 5 km
500 à 1000 ft
800 à 1500m
200 à 500 ft
< 800m
< 200 ft
Symboles :   Orages  Brouillard  Fortes neiges  Fortes précipitations  Vent > 20 kt
SIGMETs :   Divers  Orages  Givrage  Turbulence  Onde Orograph.  Cendres Volcan.







- Altitude de l'aérodrome : 26 ft
- Code IATA : GLA
- Voir les cartes d'approche


EGPF - Glasgow

DERNIER METAR :
  • 231320Z AUTO 23009KT 9999 FEW014 SCT021 BKN036 20/17 Q1012

METARs EXPIRÉS :
  • 231250Z AUTO 23010KT 9000 -RA BKN011 BKN026 OVC041 19/18 Q1012
  • 231220Z AUTO 21011KT 9999 BKN012 OVC049 20/17 Q1012
  • 231150Z AUTO 21013KT 9999 BKN014 BKN022 BKN038 20/17 Q1012
  • 231120Z AUTO 23011KT 9999 OVC013 19/16 Q1012
  • 231050Z AUTO 23012KT 9999 BKN013 OVC018 20/17 Q1012

TAF TAF EGPF
Valide du 23 à 12h jusqu'au 24 à 12h UTC


231101Z 2312/2412 23009KT 9999 FEW020 SCT040
TEMPO 2312/2320 7000 -RA BKN008
PROB40
TEMPO 2312/2318 4000 RA
PROB30 2320/2406 6000 BKN004
ATIS : +44 141 887 7449
Pas de NOTAMs connus pour ce terrain.



MET'MAP, la Météo Aéronautique d'un coup d'oeil ! - Copyright ORBIFLY Décembre 2007 - Disclaimer

ORBIFLY MET'MAP TEAM :

Programmation & Développement : Alexandra Zaïnal
Conception & Développement : Baudouin d'Aumeries
Co-Programmation & Développement : Marc-Olivier Méhu
Soutien technique & logistique : Manuel Goepfert

Contact : metmap@orbifly.com




SOURCES & CREDITS :

   NOAA